sensor_id;sensor_type;location;lat;lon;timestamp;temperature;humidity
45066;DHT22;30830;53.704;10.004;2023-12-04T00:01:00;-1.80;99.90
45066;DHT22;30830;53.704;10.004;2023-12-04T00:03:25;-1.90;99.90
45066;DHT22;30830;53.704;10.004;2023-12-04T00:05:51;-1.90;99.90
45066;DHT22;30830;53.704;10.004;2023-12-04T00:08:16;-1.90;99.90
45066;DHT22;30830;53.704;10.004;2023-12-04T00:10:42;-1.90;99.90
45066;DHT22;30830;53.704;10.004;2023-12-04T00:13:08;-1.90;99.90
45066;DHT22;30830;53.704;10.004;2023-12-04T00:15:33;-1.90;99.90
45066;DHT22;30830;53.704;10.004;2023-12-04T00:17:59;-1.90;99.90
45066;DHT22;30830;53.704;10.004;2023-12-04T00:20:24;-1.90;99.90
45066;DHT22;30830;53.704;10.004;2023-12-04T00:22:50;-2.00;99.90
45066;DHT22;30830;53.704;10.004;2023-12-04T00:25:15;-2.00;99.90
45066;DHT22;30830;53.704;10.004;2023-12-04T00:27:41;-2.00;99.90
45066;DHT22;30830;53.704;10.004;2023-12-04T00:30:07;-2.00;99.90
45066;DHT22;30830;53.704;10.004;2023-12-04T00:32:32;-2.10;99.90
45066;DHT22;30830;53.704;10.004;2023-12-04T00:34:58;-2.10;99.90
45066;DHT22;30830;53.704;10.004;2023-12-04T00:37:23;-2.10;99.90
45066;DHT22;30830;53.704;10.004;2023-12-04T00:39:49;-2.10;99.90
45066;DHT22;30830;53.704;10.004;2023-12-04T00:42:15;-2.20;99.90
45066;DHT22;30830;53.704;10.004;2023-12-04T00:44:40;-2.10;99.90
45066;DHT22;30830;53.704;10.004;2023-12-04T00:47:06;-2.20;99.90
45066;DHT22;30830;53.704;10.004;2023-12-04T00:49:31;-2.20;99.90
45066;DHT22;30830;53.704;10.004;2023-12-04T00:51:57;-2.20;99.90
45066;DHT22;30830;53.704;10.004;2023-12-04T00:54:22;-2.20;99.90
45066;DHT22;30830;53.704;10.004;2023-12-04T00:56:48;-2.20;99.90
45066;DHT22;30830;53.704;10.004;2023-12-04T00:59:13;-2.20;99.90
45066;DHT22;30830;53.704;10.004;2023-12-04T01:01:39;-2.20;99.90
45066;DHT22;30830;53.704;10.004;2023-12-04T01:04:04;-2.30;99.90
45066;DHT22;30830;53.704;10.004;2023-12-04T01:06:30;-2.30;99.90
45066;DHT22;30830;53.704;10.004;2023-12-04T01:08:56;-2.30;99.90
45066;DHT22;30830;53.704;10.004;2023-12-04T01:11:23;-2.30;99.90
45066;DHT22;30830;53.704;10.004;2023-12-04T01:13:49;-2.30;99.90
45066;DHT22;30830;53.704;10.004;2023-12-04T01:16:15;-2.30;99.90
45066;DHT22;30830;53.704;10.004;2023-12-04T01:18:41;-2.40;99.90
45066;DHT22;30830;53.704;10.004;2023-12-04T01:21:08;-2.30;99.90
45066;DHT22;30830;53.704;10.004;2023-12-04T01:23:36;-2.40;99.90
45066;DHT22;30830;53.704;10.004;2023-12-04T01:26:06;-2.40;99.90
45066;DHT22;30830;53.704;10.004;2023-12-04T01:28:31;-2.40;99.90
45066;DHT22;30830;53.704;10.004;2023-12-04T01:30:57;-2.40;99.90
45066;DHT22;30830;53.704;10.004;2023-12-04T01:33:22;-2.50;99.90
45066;DHT22;30830;53.704;10.004;2023-12-04T01:35:48;-2.50;99.90
45066;DHT22;30830;53.704;10.004;2023-12-04T01:38:14;-2.50;99.90
45066;DHT22;30830;53.704;10.004;2023-12-04T01:40:39;-2.50;99.90
45066;DHT22;30830;53.704;10.004;2023-12-04T01:43:05;-2.60;99.90
45066;DHT22;30830;53.704;10.004;2023-12-04T01:45:30;-2.60;99.90
45066;DHT22;30830;53.704;10.004;2023-12-04T01:47:57;-2.60;99.90
45066;DHT22;30830;53.704;10.004;2023-12-04T01:50:24;-2.60;99.90
45066;DHT22;30830;53.704;10.004;2023-12-04T01:52:51;-2.60;99.90
45066;DHT22;30830;53.704;10.004;2023-12-04T01:55:17;-2.60;99.90
45066;DHT22;30830;53.704;10.004;2023-12-04T01:57:43;-2.70;99.90
45066;DHT22;30830;53.704;10.004;2023-12-04T02:00:10;-2.70;99.90
45066;DHT22;30830;53.704;10.004;2023-12-04T02:02:41;-2.70;99.90
45066;DHT22;30830;53.704;10.004;2023-12-04T02:05:11;-2.70;99.90
45066;DHT22;30830;53.704;10.004;2023-12-04T02:07:36;-2.70;99.90
45066;DHT22;30830;53.704;10.004;2023-12-04T02:10:03;-2.70;99.90
45066;DHT22;30830;53.704;10.004;2023-12-04T02:12:29;-2.70;99.90
45066;DHT22;30830;53.704;10.004;2023-12-04T02:14:55;-2.70;99.90
45066;DHT22;30830;53.704;10.004;2023-12-04T02:17:21;-2.70;99.90
45066;DHT22;30830;53.704;10.004;2023-12-04T02:19:47;-2.70;99.90
45066;DHT22;30830;53.704;10.004;2023-12-04T02:22:12;-2.70;99.90
45066;DHT22;30830;53.704;10.004;2023-12-04T02:24:38;-2.70;99.90
45066;DHT22;30830;53.704;10.004;2023-12-04T02:27:20;-2.80;99.90
45066;DHT22;30830;53.704;10.004;2023-12-04T02:29:52;-2.80;99.90
45066;DHT22;30830;53.704;10.004;2023-12-04T02:32:19;-2.80;99.90
45066;DHT22;30830;53.704;10.004;2023-12-04T02:34:47;-2.80;99.90
45066;DHT22;30830;53.704;10.004;2023-12-04T02:37:15;-2.80;99.90
45066;DHT22;30830;53.704;10.004;2023-12-04T02:39:42;-2.80;99.90
45066;DHT22;30830;53.704;10.004;2023-12-04T02:42:07;-2.80;99.90
45066;DHT22;30830;53.704;10.004;2023-12-04T02:44:33;-2.80;99.90
45066;DHT22;30830;53.704;10.004;2023-12-04T02:46:58;-2.80;99.90
45066;DHT22;30830;53.704;10.004;2023-12-04T02:49:24;-2.80;99.90
45066;DHT22;30830;53.704;10.004;2023-12-04T02:51:50;-2.80;99.90
45066;DHT22;30830;53.704;10.004;2023-12-04T02:54:15;-2.80;99.90
45066;DHT22;30830;53.704;10.004;2023-12-04T02:56:41;-2.90;99.90
45066;DHT22;30830;53.704;10.004;2023-12-04T02:59:06;-2.90;99.90
45066;DHT22;30830;53.704;10.004;2023-12-04T03:01:32;-2.90;99.90
45066;DHT22;30830;53.704;10.004;2023-12-04T03:03:57;-2.80;99.90
45066;DHT22;30830;53.704;10.004;2023-12-04T03:06:23;-2.90;99.90
45066;DHT22;30830;53.704;10.004;2023-12-04T03:08:48;-2.80;99.90
45066;DHT22;30830;53.704;10.004;2023-12-04T03:11:14;-2.90;99.90
45066;DHT22;30830;53.704;10.004;2023-12-04T03:13:40;-2.90;99.90
45066;DHT22;30830;53.704;10.004;2023-12-04T03:16:06;-2.90;99.90
45066;DHT22;30830;53.704;10.004;2023-12-04T03:18:31;-2.90;99.90
45066;DHT22;30830;53.704;10.004;2023-12-04T03:20:57;-2.80;99.90
45066;DHT22;30830;53.704;10.004;2023-12-04T03:23:22;-2.80;99.90
45066;DHT22;30830;53.704;10.004;2023-12-04T03:25:48;-2.80;99.90
45066;DHT22;30830;53.704;10.004;2023-12-04T03:28:13;-2.80;99.90
45066;DHT22;30830;53.704;10.004;2023-12-04T03:30:41;-2.80;99.90
45066;DHT22;30830;53.704;10.004;2023-12-04T03:33:09;-2.80;99.90
45066;DHT22;30830;53.704;10.004;2023-12-04T03:35:34;-2.80;99.90
45066;DHT22;30830;53.704;10.004;2023-12-04T03:38:00;-2.80;99.90
45066;DHT22;30830;53.704;10.004;2023-12-04T03:40:25;-2.70;99.90
45066;DHT22;30830;53.704;10.004;2023-12-04T03:42:51;-2.80;99.90
45066;DHT22;30830;53.704;10.004;2023-12-04T03:45:16;-2.80;99.90
45066;DHT22;30830;53.704;10.004;2023-12-04T03:47:42;-2.80;99.90
45066;DHT22;30830;53.704;10.004;2023-12-04T03:50:07;-2.80;99.90
45066;DHT22;30830;53.704;10.004;2023-12-04T03:52:33;-2.80;99.90
45066;DHT22;30830;53.704;10.004;2023-12-04T03:54:59;-2.80;99.90
45066;DHT22;30830;53.704;10.004;2023-12-04T03:57:24;-2.80;99.90
45066;DHT22;30830;53.704;10.004;2023-12-04T03:59:50;-2.70;99.90
45066;DHT22;30830;53.704;10.004;2023-12-04T04:02:15;-2.70;99.90
45066;DHT22;30830;53.704;10.004;2023-12-04T04:04:41;-2.70;99.90
45066;DHT22;30830;53.704;10.004;2023-12-04T04:07:06;-2.70;99.90
45066;DHT22;30830;53.704;10.004;2023-12-04T04:09:32;-2.70;99.90
45066;DHT22;30830;53.704;10.004;2023-12-04T04:11:58;-2.80;99.90
45066;DHT22;30830;53.704;10.004;2023-12-04T04:16:52;-2.80;99.90
45066;DHT22;30830;53.704;10.004;2023-12-04T04:19:17;-2.70;99.90
45066;DHT22;30830;53.704;10.004;2023-12-04T04:21:43;-2.80;99.90
45066;DHT22;30830;53.704;10.004;2023-12-04T04:24:08;-2.70;99.90
45066;DHT22;30830;53.704;10.004;2023-12-04T04:26:34;-2.70;99.90
45066;DHT22;30830;53.704;10.004;2023-12-04T04:28:59;-2.70;99.90
45066;DHT22;30830;53.704;10.004;2023-12-04T04:31:25;-2.70;99.90
45066;DHT22;30830;53.704;10.004;2023-12-04T04:33:50;-2.80;99.90
45066;DHT22;30830;53.704;10.004;2023-12-04T04:36:16;-2.80;99.90
45066;DHT22;30830;53.704;10.004;2023-12-04T04:38:41;-2.80;99.90
45066;DHT22;30830;53.704;10.004;2023-12-04T04:41:12;-2.80;99.90
45066;DHT22;30830;53.704;10.004;2023-12-04T04:43:38;-2.80;99.90
45066;DHT22;30830;53.704;10.004;2023-12-04T04:46:03;-2.70;99.90
45066;DHT22;30830;53.704;10.004;2023-12-04T04:48:29;-2.70;99.90
45066;DHT22;30830;53.704;10.004;2023-12-04T04:50:55;-2.70;99.90
45066;DHT22;30830;53.704;10.004;2023-12-04T04:53:20;-2.70;99.90
45066;DHT22;30830;53.704;10.004;2023-12-04T04:55:46;-2.70;99.90
45066;DHT22;30830;53.704;10.004;2023-12-04T04:58:11;-2.60;99.90
45066;DHT22;30830;53.704;10.004;2023-12-04T05:00:37;-2.60;99.90
45066;DHT22;30830;53.704;10.004;2023-12-04T05:03:02;-2.60;99.90
45066;DHT22;30830;53.704;10.004;2023-12-04T05:05:28;-2.60;99.90
45066;DHT22;30830;53.704;10.004;2023-12-04T05:07:54;-2.60;99.90
45066;DHT22;30830;53.704;10.004;2023-12-04T05:10:19;-2.60;99.90
45066;DHT22;30830;53.704;10.004;2023-12-04T05:12:45;-2.60;99.90
45066;DHT22;30830;53.704;10.004;2023-12-04T05:15:10;-2.60;99.90
45066;DHT22;30830;53.704;10.004;2023-12-04T05:17:36;-2.60;99.90
45066;DHT22;30830;53.704;10.004;2023-12-04T05:20:01;-2.60;99.90
45066;DHT22;30830;53.704;10.004;2023-12-04T05:22:27;-2.50;99.90
45066;DHT22;30830;53.704;10.004;2023-12-04T05:24:52;-2.50;99.90
45066;DHT22;30830;53.704;10.004;2023-12-04T05:27:18;-2.50;99.90
45066;DHT22;30830;53.704;10.004;2023-12-04T05:29:43;-2.50;99.90
45066;DHT22;30830;53.704;10.004;2023-12-04T05:32:09;-2.40;99.90
45066;DHT22;30830;53.704;10.004;2023-12-04T05:34:34;-2.40;99.90
45066;DHT22;30830;53.704;10.004;2023-12-04T05:37:00;-2.40;99.90
45066;DHT22;30830;53.704;10.004;2023-12-04T05:39:25;-2.40;99.90
45066;DHT22;30830;53.704;10.004;2023-12-04T05:41:51;-2.30;99.90
45066;DHT22;30830;53.704;10.004;2023-12-04T05:44:17;-2.30;99.90
45066;DHT22;30830;53.704;10.004;2023-12-04T05:46:42;-2.30;99.90
45066;DHT22;30830;53.704;10.004;2023-12-04T05:49:08;-2.30;99.90
45066;DHT22;30830;53.704;10.004;2023-12-04T05:51:33;-2.30;99.90
45066;DHT22;30830;53.704;10.004;2023-12-04T05:53:59;-2.30;99.90
45066;DHT22;30830;53.704;10.004;2023-12-04T05:56:24;-2.30;99.90
45066;DHT22;30830;53.704;10.004;2023-12-04T05:58:50;-2.30;99.90
45066;DHT22;30830;53.704;10.004;2023-12-04T06:01:15;-2.30;99.90
45066;DHT22;30830;53.704;10.004;2023-12-04T06:03:41;-2.30;99.90
45066;DHT22;30830;53.704;10.004;2023-12-04T06:06:07;-2.20;99.90
45066;DHT22;30830;53.704;10.004;2023-12-04T06:08:32;-2.20;99.90
45066;DHT22;30830;53.704;10.004;2023-12-04T06:10:58;-2.20;99.90
45066;DHT22;30830;53.704;10.004;2023-12-04T06:13:23;-2.20;99.90
45066;DHT22;30830;53.704;10.004;2023-12-04T06:15:49;-2.20;99.90
45066;DHT22;30830;53.704;10.004;2023-12-04T06:18:15;-2.20;99.90
45066;DHT22;30830;53.704;10.004;2023-12-04T06:20:40;-2.20;99.90
45066;DHT22;30830;53.704;10.004;2023-12-04T06:23:06;-2.20;99.90
45066;DHT22;30830;53.704;10.004;2023-12-04T06:25:32;-2.20;99.90
45066;DHT22;30830;53.704;10.004;2023-12-04T06:27:57;-2.20;99.90
45066;DHT22;30830;53.704;10.004;2023-12-04T06:30:23;-2.30;99.90
45066;DHT22;30830;53.704;10.004;2023-12-04T06:32:49;-2.20;99.90
45066;DHT22;30830;53.704;10.004;2023-12-04T06:35:15;-2.20;99.90
45066;DHT22;30830;53.704;10.004;2023-12-04T06:37:41;-2.20;99.90
45066;DHT22;30830;53.704;10.004;2023-12-04T06:40:08;-2.20;99.90
45066;DHT22;30830;53.704;10.004;2023-12-04T06:42:36;-2.20;99.90
45066;DHT22;30830;53.704;10.004;2023-12-04T06:45:02;-2.20;99.90
45066;DHT22;30830;53.704;10.004;2023-12-04T06:47:33;-2.20;99.90
45066;DHT22;30830;53.704;10.004;2023-12-04T06:49:59;-2.30;99.90
45066;DHT22;30830;53.704;10.004;2023-12-04T06:52:25;-2.30;99.90
45066;DHT22;30830;53.704;10.004;2023-12-04T06:54:50;-2.30;99.90
45066;DHT22;30830;53.704;10.004;2023-12-04T06:57:16;-2.30;99.90
45066;DHT22;30830;53.704;10.004;2023-12-04T06:59:42;-2.30;99.90
45066;DHT22;30830;53.704;10.004;2023-12-04T07:02:08;-2.30;99.90
45066;DHT22;30830;53.704;10.004;2023-12-04T07:04:33;-2.30;99.90
45066;DHT22;30830;53.704;10.004;2023-12-04T07:06:59;-2.30;99.90
45066;DHT22;30830;53.704;10.004;2023-12-04T07:09:30;-2.30;99.90
45066;DHT22;30830;53.704;10.004;2023-12-04T07:11:56;-2.30;99.90
45066;DHT22;30830;53.704;10.004;2023-12-04T07:14:22;-2.40;99.90
45066;DHT22;30830;53.704;10.004;2023-12-04T07:16:47;-2.40;99.90
45066;DHT22;30830;53.704;10.004;2023-12-04T07:19:13;-2.30;99.90
45066;DHT22;30830;53.704;10.004;2023-12-04T07:21:40;-2.30;99.90
45066;DHT22;30830;53.704;10.004;2023-12-04T07:24:06;-2.30;99.90
45066;DHT22;30830;53.704;10.004;2023-12-04T07:26:33;-2.30;99.90
45066;DHT22;30830;53.704;10.004;2023-12-04T07:28:59;-2.30;99.90
45066;DHT22;30830;53.704;10.004;2023-12-04T07:31:24;-2.30;99.90
45066;DHT22;30830;53.704;10.004;2023-12-04T07:33:53;-2.30;99.90
45066;DHT22;30830;53.704;10.004;2023-12-04T07:36:18;-2.30;99.90
45066;DHT22;30830;53.704;10.004;2023-12-04T07:38:44;-2.30;99.90
45066;DHT22;30830;53.704;10.004;2023-12-04T07:41:09;-2.30;99.90
45066;DHT22;30830;53.704;10.004;2023-12-04T07:43:35;-2.30;99.90
45066;DHT22;30830;53.704;10.004;2023-12-04T07:46:00;-2.30;99.90
45066;DHT22;30830;53.704;10.004;2023-12-04T07:48:26;-2.30;99.90
45066;DHT22;30830;53.704;10.004;2023-12-04T07:50:51;-2.30;99.90
45066;DHT22;30830;53.704;10.004;2023-12-04T07:53:17;-2.30;99.90
45066;DHT22;30830;53.704;10.004;2023-12-04T07:55:42;-2.20;99.90
45066;DHT22;30830;53.704;10.004;2023-12-04T07:58:09;-2.20;99.90
45066;DHT22;30830;53.704;10.004;2023-12-04T08:00:35;-2.20;99.90
45066;DHT22;30830;53.704;10.004;2023-12-04T08:03:00;-2.20;99.90
45066;DHT22;30830;53.704;10.004;2023-12-04T08:05:26;-2.20;99.90
45066;DHT22;30830;53.704;10.004;2023-12-04T08:07:52;-2.20;99.90
45066;DHT22;30830;53.704;10.004;2023-12-04T08:10:18;-2.20;99.90
45066;DHT22;30830;53.704;10.004;2023-12-04T08:12:47;-2.20;99.90
45066;DHT22;30830;53.704;10.004;2023-12-04T08:15:12;-2.10;99.90
45066;DHT22;30830;53.704;10.004;2023-12-04T08:17:38;-2.10;99.90
45066;DHT22;30830;53.704;10.004;2023-12-04T08:20:03;-2.10;99.90
45066;DHT22;30830;53.704;10.004;2023-12-04T08:22:29;-2.10;99.90
45066;DHT22;30830;53.704;10.004;2023-12-04T08:24:55;-2.10;99.90
45066;DHT22;30830;53.704;10.004;2023-12-04T08:27:20;-2.00;99.90
45066;DHT22;30830;53.704;10.004;2023-12-04T08:29:46;-2.00;99.90
45066;DHT22;30830;53.704;10.004;2023-12-04T08:32:11;-2.00;99.90
45066;DHT22;30830;53.704;10.004;2023-12-04T08:34:37;-1.90;99.90
45066;DHT22;30830;53.704;10.004;2023-12-04T08:37:03;-1.90;99.90
45066;DHT22;30830;53.704;10.004;2023-12-04T08:39:28;-2.00;99.90
45066;DHT22;30830;53.704;10.004;2023-12-04T08:41:54;-1.90;99.90
45066;DHT22;30830;53.704;10.004;2023-12-04T08:44:19;-1.90;99.90
45066;DHT22;30830;53.704;10.004;2023-12-04T08:46:45;-1.90;99.90
45066;DHT22;30830;53.704;10.004;2023-12-04T08:49:10;-1.80;99.90
45066;DHT22;30830;53.704;10.004;2023-12-04T08:51:36;-1.90;99.90
45066;DHT22;30830;53.704;10.004;2023-12-04T08:54:01;-1.80;99.90
45066;DHT22;30830;53.704;10.004;2023-12-04T08:56:28;-1.80;99.90
45066;DHT22;30830;53.704;10.004;2023-12-04T08:58:54;-1.80;99.90
45066;DHT22;30830;53.704;10.004;2023-12-04T09:01:20;-1.70;99.90
45066;DHT22;30830;53.704;10.004;2023-12-04T09:03:45;-1.70;99.90
45066;DHT22;30830;53.704;10.004;2023-12-04T09:06:11;-1.70;99.90
45066;DHT22;30830;53.704;10.004;2023-12-04T09:08:36;-1.70;99.90
45066;DHT22;30830;53.704;10.004;2023-12-04T09:11:02;-1.60;99.90
45066;DHT22;30830;53.704;10.004;2023-12-04T09:13:29;-1.60;99.90
45066;DHT22;30830;53.704;10.004;2023-12-04T09:15:56;-1.60;99.90
45066;DHT22;30830;53.704;10.004;2023-12-04T09:18:21;-1.60;99.90
45066;DHT22;30830;53.704;10.004;2023-12-04T09:20:47;-1.60;99.90
45066;DHT22;30830;53.704;10.004;2023-12-04T09:23:13;-1.60;99.90
45066;DHT22;30830;53.704;10.004;2023-12-04T09:25:38;-1.60;99.90
45066;DHT22;30830;53.704;10.004;2023-12-04T09:28:04;-1.60;99.90
45066;DHT22;30830;53.704;10.004;2023-12-04T09:30:29;-1.60;99.90
45066;DHT22;30830;53.704;10.004;2023-12-04T09:32:55;-1.50;99.90
45066;DHT22;30830;53.704;10.004;2023-12-04T09:35:20;-1.50;99.90
45066;DHT22;30830;53.704;10.004;2023-12-04T09:37:46;-1.50;99.90
45066;DHT22;30830;53.704;10.004;2023-12-04T09:40:14;-1.50;99.90
45066;DHT22;30830;53.704;10.004;2023-12-04T09:42:40;-1.40;99.90
45066;DHT22;30830;53.704;10.004;2023-12-04T09:45:07;-1.40;99.90
45066;DHT22;30830;53.704;10.004;2023-12-04T09:47:34;-1.40;99.90
45066;DHT22;30830;53.704;10.004;2023-12-04T09:50:00;-1.40;99.90
45066;DHT22;30830;53.704;10.004;2023-12-04T09:52:27;-1.30;99.90
45066;DHT22;30830;53.704;10.004;2023-12-04T09:54:53;-1.30;99.90
45066;DHT22;30830;53.704;10.004;2023-12-04T09:57:18;-1.30;99.90
45066;DHT22;30830;53.704;10.004;2023-12-04T09:59:44;-1.30;99.90
45066;DHT22;30830;53.704;10.004;2023-12-04T10:02:11;-1.30;99.90
45066;DHT22;30830;53.704;10.004;2023-12-04T10:04:37;-1.30;99.90
45066;DHT22;30830;53.704;10.004;2023-12-04T10:07:03;-1.20;99.90
45066;DHT22;30830;53.704;10.004;2023-12-04T10:09:30;-1.20;99.90
45066;DHT22;30830;53.704;10.004;2023-12-04T10:11:56;-1.10;99.90
45066;DHT22;30830;53.704;10.004;2023-12-04T10:14:22;-1.10;99.90
45066;DHT22;30830;53.704;10.004;2023-12-04T10:16:48;-1.10;99.90
45066;DHT22;30830;53.704;10.004;2023-12-04T10:19:22;-1.10;99.90
45066;DHT22;30830;53.704;10.004;2023-12-04T10:21:50;-1.00;99.90
45066;DHT22;30830;53.704;10.004;2023-12-04T10:24:33;-1.00;99.90
45066;DHT22;30830;53.704;10.004;2023-12-04T10:27:01;-0.90;99.90
45066;DHT22;30830;53.704;10.004;2023-12-04T10:29:29;-0.80;99.90
45066;DHT22;30830;53.704;10.004;2023-12-04T10:31:58;-0.80;99.90
45066;DHT22;30830;53.704;10.004;2023-12-04T10:34:25;-0.70;99.90
45066;DHT22;30830;53.704;10.004;2023-12-04T10:36:51;-0.70;99.90
45066;DHT22;30830;53.704;10.004;2023-12-04T10:39:17;-0.70;99.90
45066;DHT22;30830;53.704;10.004;2023-12-04T10:41:43;-0.70;99.90
45066;DHT22;30830;53.704;10.004;2023-12-04T10:44:09;-0.70;99.90
45066;DHT22;30830;53.704;10.004;2023-12-04T10:46:36;-0.60;99.90
45066;DHT22;30830;53.704;10.004;2023-12-04T10:49:04;-0.60;99.90
45066;DHT22;30830;53.704;10.004;2023-12-04T10:51:30;-0.50;99.90
45066;DHT22;30830;53.704;10.004;2023-12-04T10:53:56;-0.50;99.90
45066;DHT22;30830;53.704;10.004;2023-12-04T10:56:33;-0.50;99.90
45066;DHT22;30830;53.704;10.004;2023-12-04T10:59:00;-0.50;99.90
45066;DHT22;30830;53.704;10.004;2023-12-04T11:01:27;-0.50;99.90
45066;DHT22;30830;53.704;10.004;2023-12-04T11:03:56;-0.50;99.90
45066;DHT22;30830;53.704;10.004;2023-12-04T11:06:24;-0.50;99.90
45066;DHT22;30830;53.704;10.004;2023-12-04T11:08:53;-0.50;99.90
45066;DHT22;30830;53.704;10.004;2023-12-04T11:11:27;-0.40;99.90
45066;DHT22;30830;53.704;10.004;2023-12-04T11:13:55;-0.40;99.90
45066;DHT22;30830;53.704;10.004;2023-12-04T11:19:00;-0.40;99.90
45066;DHT22;30830;53.704;10.004;2023-12-04T11:21:28;-0.40;99.90
45066;DHT22;30830;53.704;10.004;2023-12-04T11:23:55;-0.40;99.90
45066;DHT22;30830;53.704;10.004;2023-12-04T11:26:23;-0.40;99.90
45066;DHT22;30830;53.704;10.004;2023-12-04T11:28:51;-0.50;99.90
45066;DHT22;30830;53.704;10.004;2023-12-04T11:31:18;-0.40;99.90
45066;DHT22;30830;53.704;10.004;2023-12-04T11:33:43;-0.50;99.90
45066;DHT22;30830;53.704;10.004;2023-12-04T11:36:11;-0.50;99.90
45066;DHT22;30830;53.704;10.004;2023-12-04T11:38:40;-0.50;99.90
45066;DHT22;30830;53.704;10.004;2023-12-04T11:41:19;-0.50;99.90
45066;DHT22;30830;53.704;10.004;2023-12-04T11:43:46;-0.50;99.90
45066;DHT22;30830;53.704;10.004;2023-12-04T11:46:22;-0.50;99.90
45066;DHT22;30830;53.704;10.004;2023-12-04T11:48:49;-0.40;99.90
45066;DHT22;30830;53.704;10.004;2023-12-04T11:54:07;-0.40;99.90
45066;DHT22;30830;53.704;10.004;2023-12-04T11:56:33;-0.40;99.90
45066;DHT22;30830;53.704;10.004;2023-12-04T11:59:06;-0.40;99.90
45066;DHT22;30830;53.704;10.004;2023-12-04T12:01:37;-0.40;99.90
45066;DHT22;30830;53.704;10.004;2023-12-04T12:04:07;-0.30;99.90
45066;DHT22;30830;53.704;10.004;2023-12-04T12:06:32;-0.30;99.90
45066;DHT22;30830;53.704;10.004;2023-12-04T12:08:58;-0.30;99.90
45066;DHT22;30830;53.704;10.004;2023-12-04T12:11:24;-0.30;99.90
45066;DHT22;30830;53.704;10.004;2023-12-04T12:13:53;-0.30;99.90
45066;DHT22;30830;53.704;10.004;2023-12-04T12:16:18;-0.30;99.90
45066;DHT22;30830;53.704;10.004;2023-12-04T12:18:44;-0.40;99.90
45066;DHT22;30830;53.704;10.004;2023-12-04T12:21:10;-0.40;99.90
45066;DHT22;30830;53.704;10.004;2023-12-04T12:23:36;-0.40;99.90
45066;DHT22;30830;53.704;10.004;2023-12-04T12:26:01;-0.50;99.90
45066;DHT22;30830;53.704;10.004;2023-12-04T12:28:28;-0.50;99.90
45066;DHT22;30830;53.704;10.004;2023-12-04T12:30:54;-0.50;99.90
45066;DHT22;30830;53.704;10.004;2023-12-04T12:33:20;-0.50;99.90
45066;DHT22;30830;53.704;10.004;2023-12-04T12:35:47;-0.50;99.90
45066;DHT22;30830;53.704;10.004;2023-12-04T12:38:13;-0.50;99.90
45066;DHT22;30830;53.704;10.004;2023-12-04T12:40:39;-0.50;99.90
45066;DHT22;30830;53.704;10.004;2023-12-04T12:43:05;-0.50;99.90
45066;DHT22;30830;53.704;10.004;2023-12-04T12:45:39;-0.50;99.90
45066;DHT22;30830;53.704;10.004;2023-12-04T12:48:05;-0.50;99.90
45066;DHT22;30830;53.704;10.004;2023-12-04T12:50:31;-0.50;99.90
45066;DHT22;30830;53.704;10.004;2023-12-04T12:52:57;-0.60;99.90
45066;DHT22;30830;53.704;10.004;2023-12-04T12:55:23;-0.60;99.90
45066;DHT22;30830;53.704;10.004;2023-12-04T12:57:50;-0.60;99.90
45066;DHT22;30830;53.704;10.004;2023-12-04T13:00:16;-0.60;99.90
45066;DHT22;30830;53.704;10.004;2023-12-04T13:02:44;-0.60;99.90
45066;DHT22;30830;53.704;10.004;2023-12-04T13:05:09;-0.60;99.90
45066;DHT22;30830;53.704;10.004;2023-12-04T13:07:36;-0.60;99.90
45066;DHT22;30830;53.704;10.004;2023-12-04T13:10:02;-0.60;99.90
45066;DHT22;30830;53.704;10.004;2023-12-04T13:12:30;-0.60;99.90
45066;DHT22;30830;53.704;10.004;2023-12-04T13:14:56;-0.60;99.90
45066;DHT22;30830;53.704;10.004;2023-12-04T13:17:21;-0.60;99.90
45066;DHT22;30830;53.704;10.004;2023-12-04T13:19:47;-0.60;99.90
45066;DHT22;30830;53.704;10.004;2023-12-04T13:22:12;-0.60;99.90
45066;DHT22;30830;53.704;10.004;2023-12-04T13:24:38;-0.70;99.90
45066;DHT22;30830;53.704;10.004;2023-12-04T13:27:03;-0.70;99.90
45066;DHT22;30830;53.704;10.004;2023-12-04T13:29:29;-0.60;99.90
45066;DHT22;30830;53.704;10.004;2023-12-04T13:31:55;-0.60;99.90
45066;DHT22;30830;53.704;10.004;2023-12-04T13:34:20;-0.70;99.90
45066;DHT22;30830;53.704;10.004;2023-12-04T13:36:46;-0.70;99.90
45066;DHT22;30830;53.704;10.004;2023-12-04T13:39:11;-0.70;99.90
45066;DHT22;30830;53.704;10.004;2023-12-04T13:41:47;-0.70;99.90
45066;DHT22;30830;53.704;10.004;2023-12-04T13:44:32;-0.70;99.90
45066;DHT22;30830;53.704;10.004;2023-12-04T13:46:58;-0.70;99.90
45066;DHT22;30830;53.704;10.004;2023-12-04T13:49:24;-0.80;99.90
45066;DHT22;30830;53.704;10.004;2023-12-04T13:51:50;-0.70;99.90
45066;DHT22;30830;53.704;10.004;2023-12-04T13:54:15;-0.70;99.90
45066;DHT22;30830;53.704;10.004;2023-12-04T13:56:47;-0.70;99.90
45066;DHT22;30830;53.704;10.004;2023-12-04T13:59:22;-0.80;99.90
45066;DHT22;30830;53.704;10.004;2023-12-04T14:01:49;-0.70;99.90
45066;DHT22;30830;53.704;10.004;2023-12-04T14:04:16;-0.70;99.90
45066;DHT22;30830;53.704;10.004;2023-12-04T14:06:41;-0.80;99.90
45066;DHT22;30830;53.704;10.004;2023-12-04T14:09:07;-0.70;99.90
45066;DHT22;30830;53.704;10.004;2023-12-04T14:11:36;-0.70;99.90
45066;DHT22;30830;53.704;10.004;2023-12-04T14:14:02;-0.80;99.90
45066;DHT22;30830;53.704;10.004;2023-12-04T14:16:28;-0.70;99.90
45066;DHT22;30830;53.704;10.004;2023-12-04T14:18:54;-0.70;99.90
45066;DHT22;30830;53.704;10.004;2023-12-04T14:21:19;-0.70;99.90
45066;DHT22;30830;53.704;10.004;2023-12-04T14:23:45;-0.70;99.90
45066;DHT22;30830;53.704;10.004;2023-12-04T14:26:10;-0.70;99.90
45066;DHT22;30830;53.704;10.004;2023-12-04T14:28:36;-0.80;99.90
45066;DHT22;30830;53.704;10.004;2023-12-04T14:31:02;-0.80;99.90
45066;DHT22;30830;53.704;10.004;2023-12-04T14:33:28;-0.80;99.90
45066;DHT22;30830;53.704;10.004;2023-12-04T14:35:53;-0.80;99.90
45066;DHT22;30830;53.704;10.004;2023-12-04T14:38:20;-0.90;99.90
45066;DHT22;30830;53.704;10.004;2023-12-04T14:40:45;-0.90;99.90
45066;DHT22;30830;53.704;10.004;2023-12-04T14:43:11;-0.90;99.90
45066;DHT22;30830;53.704;10.004;2023-12-04T14:45:37;-0.90;99.90
45066;DHT22;30830;53.704;10.004;2023-12-04T14:48:04;-0.90;99.90
45066;DHT22;30830;53.704;10.004;2023-12-04T14:50:35;-1.00;99.90
45066;DHT22;30830;53.704;10.004;2023-12-04T14:53:03;-0.90;99.90
45066;DHT22;30830;53.704;10.004;2023-12-04T14:55:42;-1.00;99.90
45066;DHT22;30830;53.704;10.004;2023-12-04T14:58:43;-1.00;99.90
45066;DHT22;30830;53.704;10.004;2023-12-04T15:01:09;-1.00;99.90
45066;DHT22;30830;53.704;10.004;2023-12-04T15:03:40;-1.00;99.90
45066;DHT22;30830;53.704;10.004;2023-12-04T15:06:21;-1.10;99.90
45066;DHT22;30830;53.704;10.004;2023-12-04T15:09:16;-1.10;99.90
45066;DHT22;30830;53.704;10.004;2023-12-04T15:12:20;-1.10;99.90
45066;DHT22;30830;53.704;10.004;2023-12-04T15:15:00;-1.20;99.90
45066;DHT22;30830;53.704;10.004;2023-12-04T15:17:28;-1.20;99.90
45066;DHT22;30830;53.704;10.004;2023-12-04T15:19:57;-1.20;99.90